createdAt,value
2022-11-28T00:01:36.828Z,29.85
2022-11-28T00:04:05.725Z,31.30
2022-11-28T00:06:35.628Z,31.35
2022-11-28T00:09:03.738Z,29.80
2022-11-28T00:11:30.937Z,29.88
2022-11-28T00:14:00.754Z,29.17
2022-11-28T00:16:27.839Z,29.02
2022-11-28T00:18:59.369Z,28.00
2022-11-28T00:21:28.926Z,30.20
2022-11-28T00:23:56.339Z,28.95
2022-11-28T00:26:32.941Z,27.73
2022-11-28T00:29:03.133Z,28.52
2022-11-28T00:31:36.006Z,28.88
2022-11-28T00:34:03.490Z,29.10
2022-11-28T00:36:31.052Z,28.63
2022-11-28T00:38:58.347Z,28.83
2022-11-28T00:41:28.779Z,28.02
2022-11-28T00:44:14.629Z,27.38
2022-11-28T00:46:44.340Z,28.58
2022-11-28T00:49:11.946Z,29.25
2022-11-28T00:51:39.468Z,27.10
2022-11-28T00:54:07.065Z,26.00
2022-11-28T00:56:37.181Z,26.88
2022-11-28T00:59:04.650Z,26.17
2022-11-28T01:01:40.317Z,26.50
2022-11-28T01:04:09.617Z,27.60
2022-11-28T01:06:40.013Z,26.00
2022-11-28T01:09:19.588Z,25.52
2022-11-28T01:11:51.713Z,24.00
2022-11-28T01:14:21.940Z,26.63
2022-11-28T01:16:49.428Z,25.13
2022-11-28T01:19:16.832Z,25.33
2022-11-28T01:21:46.169Z,23.52
2022-11-28T01:24:14.655Z,25.90
2022-11-28T01:26:42.662Z,24.25
2022-11-28T01:29:10.741Z,25.42
2022-11-28T01:31:38.429Z,23.42
2022-11-28T01:34:05.845Z,21.95
2022-11-28T01:36:32.926Z,21.60
2022-11-28T01:39:00.252Z,23.05
2022-11-28T01:41:28.941Z,22.55
2022-11-28T01:43:59.315Z,24.10
2022-11-28T01:46:26.506Z,22.35
2022-11-28T01:48:56.861Z,23.73
2022-11-28T01:51:24.634Z,22.90
2022-11-28T01:53:52.644Z,24.58
2022-11-28T01:56:23.338Z,22.73
2022-11-28T01:59:00.013Z,23.20
2022-11-28T02:01:27.413Z,22.65
2022-11-28T02:03:58.115Z,21.98
2022-11-28T02:06:26.079Z,21.80
2022-11-28T02:08:54.982Z,20.25
2022-11-28T02:11:34.041Z,19.67
2022-11-28T02:14:38.620Z,20.23
2022-11-28T02:17:11.476Z,19.52
2022-11-28T02:20:11.343Z,20.08
2022-11-28T02:22:41.125Z,19.80
2022-11-28T02:25:37.570Z,20.40
2022-11-28T02:28:10.670Z,21.07
2022-11-28T02:31:02.721Z,21.17
2022-11-28T02:33:47.318Z,21.58
2022-11-28T02:36:27.310Z,20.77
2022-11-28T02:39:36.785Z,21.75
2022-11-28T02:42:15.435Z,22.13
2022-11-28T02:45:05.893Z,21.58
2022-11-28T02:47:41.142Z,20.02
2022-11-28T02:50:30.837Z,20.98
2022-11-28T02:53:10.065Z,21.60
2022-11-28T02:55:40.400Z,21.83
2022-11-28T02:58:10.117Z,22.85
2022-11-28T03:00:41.473Z,21.08
2022-11-28T03:03:42.466Z,21.35
2022-11-28T03:06:28.675Z,21.00
2022-11-28T03:09:02.190Z,21.13
2022-11-28T03:11:54.404Z,20.67
2022-11-28T03:14:46.907Z,21.70
2022-11-28T03:17:19.731Z,19.42
2022-11-28T03:19:58.948Z,19.90
2022-11-28T03:22:38.767Z,20.10
2022-11-28T03:25:26.493Z,19.80
2022-11-28T03:28:19.165Z,18.38
2022-11-28T03:30:52.664Z,18.00
2022-11-28T03:33:22.650Z,17.17
2022-11-28T03:35:58.337Z,18.63
2022-11-28T03:38:32.314Z,16.48
2022-11-28T03:41:03.562Z,18.33
2022-11-28T03:43:38.627Z,18.45
2022-11-28T03:46:11.383Z,19.17
2022-11-28T03:48:42.835Z,17.20
2022-11-28T03:51:16.982Z,17.60
2022-11-28T03:54:03.690Z,17.90
2022-11-28T03:56:49.436Z,18.15
2022-11-28T03:59:24.115Z,17.60
2022-11-28T04:02:14.895Z,16.65
2022-11-28T04:04:54.496Z,17.65
2022-11-28T04:07:42.089Z,18.25
2022-11-28T04:10:19.643Z,18.20
2022-11-28T04:13:13.883Z,16.95
2022-11-28T04:15:55.978Z,16.20
2022-11-28T04:18:32.288Z,16.25
2022-11-28T04:21:17.614Z,17.00
2022-11-28T04:23:48.391Z,13.50
2022-11-28T04:26:20.266Z,17.17
2022-11-28T04:28:49.937Z,16.85
2022-11-28T04:31:24.421Z,17.73
2022-11-28T04:33:57.337Z,17.08
2022-11-28T04:36:26.958Z,17.15
2022-11-28T04:38:56.790Z,16.45
2022-11-28T04:41:33.040Z,16.98
2022-11-28T04:44:08.990Z,17.10
2022-11-28T04:46:43.409Z,15.32
2022-11-28T04:49:11.896Z,15.35
2022-11-28T04:51:46.319Z,15.68
2022-11-28T04:54:25.481Z,16.65
2022-11-28T04:56:59.769Z,16.23
2022-11-28T04:59:28.398Z,15.50
2022-11-28T05:01:58.442Z,16.52
2022-11-28T05:04:26.152Z,16.58
2022-11-28T05:07:02.417Z,15.25
2022-11-28T05:09:29.725Z,14.82
2022-11-28T05:11:56.864Z,16.38
2022-11-28T05:14:26.352Z,15.98
2022-11-28T05:16:53.483Z,16.52
2022-11-28T05:19:20.889Z,16.90
2022-11-28T05:21:47.937Z,16.35
2022-11-28T05:24:15.299Z,15.93
2022-11-28T05:26:42.434Z,13.90
2022-11-28T05:29:09.784Z,15.05
2022-11-28T05:31:37.928Z,16.70
2022-11-28T05:34:05.529Z,15.15
2022-11-28T05:36:32.579Z,16.58
2022-11-28T05:38:59.971Z,16.42
2022-11-28T05:41:30.163Z,15.88
2022-11-28T05:43:58.483Z,16.27
2022-11-28T05:46:29.439Z,14.98
2022-11-28T05:48:57.171Z,15.88
2022-11-28T05:51:24.631Z,16.58
2022-11-28T05:53:52.391Z,14.48
2022-11-28T05:56:23.279Z,14.65
2022-11-28T05:58:52.877Z,14.85
2022-11-28T06:01:23.743Z,14.25
2022-11-28T06:03:52.274Z,13.52
2022-11-28T06:06:21.175Z,13.88
2022-11-28T06:08:52.457Z,14.05
2022-11-28T06:11:21.520Z,14.73
2022-11-28T06:13:50.110Z,14.48
2022-11-28T06:16:20.102Z,14.30
2022-11-28T06:18:47.593Z,14.50
2022-11-28T06:21:16.128Z,13.70
2022-11-28T06:23:43.537Z,14.90
2022-11-28T06:26:13.151Z,14.43
2022-11-28T06:28:41.788Z,16.35
2022-11-28T06:31:20.584Z,15.35
2022-11-28T06:33:48.570Z,16.60
2022-11-28T06:36:17.136Z,14.30
2022-11-28T06:38:44.828Z,15.13
2022-11-28T06:41:17.922Z,14.60
2022-11-28T06:43:45.245Z,14.88
2022-11-28T06:46:17.618Z,16.20
2022-11-28T06:48:51.316Z,16.83
2022-11-28T06:51:19.420Z,16.48
2022-11-28T06:53:47.003Z,15.05
2022-11-28T06:56:16.920Z,15.98
2022-11-28T06:58:45.588Z,17.38
2022-11-28T07:01:14.370Z,15.95
2022-11-28T07:03:42.591Z,17.10
2022-11-28T07:06:09.933Z,18.08
2022-11-28T07:08:37.472Z,15.85
2022-11-28T07:11:14.879Z,16.95
2022-11-28T07:13:45.737Z,17.15
2022-11-28T07:16:20.527Z,15.55
2022-11-28T07:18:48.132Z,15.73
2022-11-28T07:21:17.962Z,15.65
2022-11-28T07:23:46.000Z,15.30
2022-11-28T07:26:17.964Z,15.85
2022-11-28T07:28:48.627Z,15.25
2022-11-28T07:31:22.016Z,16.23
2022-11-28T07:33:50.718Z,15.98
2022-11-28T07:36:22.138Z,17.02
2022-11-28T07:38:52.054Z,16.35
2022-11-28T07:41:24.981Z,16.58
2022-11-28T07:44:02.533Z,16.63
2022-11-28T07:46:31.346Z,16.30
2022-11-28T07:49:00.972Z,16.42
2022-11-28T07:51:30.811Z,17.17
2022-11-28T07:53:59.035Z,17.30
2022-11-28T07:56:50.255Z,15.80
2022-11-28T07:59:17.129Z,16.75
2022-11-28T08:01:45.896Z,17.83
2022-11-28T08:04:13.396Z,16.60
2022-11-28T08:06:43.504Z,16.63
2022-11-28T08:09:14.109Z,15.25
2022-11-28T08:11:42.011Z,15.75
2022-11-28T08:14:09.788Z,16.48
2022-11-28T08:16:37.167Z,16.75
2022-11-28T08:19:04.669Z,17.08
2022-11-28T08:21:34.429Z,17.08
2022-11-28T08:24:03.496Z,15.82
2022-11-28T08:26:32.498Z,15.60
2022-11-28T08:29:01.520Z,16.38
2022-11-28T08:31:38.878Z,15.73
2022-11-28T08:34:09.763Z,15.27
2022-11-28T08:36:37.384Z,15.35
2022-11-28T08:39:23.615Z,14.63
2022-11-28T08:41:52.570Z,14.77
2022-11-28T08:44:20.134Z,13.95
2022-11-28T08:46:47.204Z,14.55
2022-11-28T08:49:14.755Z,14.82
2022-11-28T08:51:41.965Z,15.65
2022-11-28T08:54:09.266Z,14.70
2022-11-28T08:56:36.320Z,14.73
2022-11-28T08:59:04.398Z,13.68
2022-11-28T09:01:32.174Z,14.38
2022-11-28T09:03:59.757Z,13.82
2022-11-28T09:06:26.837Z,14.05
2022-11-28T09:08:56.507Z,14.13
2022-11-28T09:11:24.177Z,13.85
2022-11-28T09:13:51.641Z,13.60
2022-11-28T09:16:18.880Z,14.55
2022-11-28T09:18:48.713Z,13.88
2022-11-28T09:21:16.182Z,13.43
2022-11-28T09:23:45.165Z,14.23
2022-11-28T09:26:19.931Z,13.43
2022-11-28T09:28:47.870Z,13.48
2022-11-28T09:31:16.762Z,12.88
2022-11-28T09:33:44.891Z,13.30
2022-11-28T09:36:14.761Z,14.18
2022-11-28T09:38:45.405Z,13.07
2022-11-28T09:41:49.387Z,14.25
2022-11-28T09:44:19.723Z,13.57
2022-11-28T09:46:49.899Z,13.93
2022-11-28T09:49:40.262Z,13.95
2022-11-28T09:52:26.293Z,13.68
2022-11-28T09:55:02.801Z,13.20
2022-11-28T09:57:47.151Z,14.30
2022-11-28T10:00:22.856Z,13.60
2022-11-28T10:03:25.331Z,13.05
2022-11-28T10:05:55.784Z,12.82
2022-11-28T10:08:22.858Z,13.45
2022-11-28T10:11:14.394Z,12.63
2022-11-28T10:14:08.077Z,11.98
2022-11-28T10:16:38.655Z,12.45
2022-11-28T10:19:31.578Z,13.52
2022-11-28T10:22:02.952Z,12.60
2022-11-28T10:24:43.816Z,12.20
2022-11-28T10:27:14.039Z,12.05
2022-11-28T10:34:07.291Z,11.90
2022-11-28T10:36:48.025Z,11.85
2022-11-28T10:39:15.487Z,12.68
2022-11-28T10:42:20.087Z,12.88
2022-11-28T10:45:02.534Z,11.63
2022-11-28T10:47:48.534Z,12.60
2022-11-28T10:50:32.261Z,11.82
2022-11-28T10:53:14.455Z,11.75
2022-11-28T10:56:00.746Z,11.77
2022-11-28T10:58:36.984Z,11.88
2022-11-28T11:01:04.985Z,12.63
2022-11-28T11:03:36.106Z,12.25
2022-11-28T11:06:03.657Z,12.65
2022-11-28T11:08:35.769Z,12.60
2022-11-28T11:11:06.459Z,12.48
2022-11-28T11:13:54.909Z,13.75
2022-11-28T11:16:23.087Z,12.20
2022-11-28T11:18:50.077Z,12.43
2022-11-28T11:21:20.982Z,12.02
2022-11-28T11:23:50.337Z,12.15
2022-11-28T11:26:29.146Z,12.20
2022-11-28T11:28:56.985Z,12.15
2022-11-28T11:31:31.882Z,12.82
2022-11-28T11:34:17.324Z,11.27
2022-11-28T11:36:45.461Z,11.15
2022-11-28T11:39:15.306Z,13.52
2022-11-28T11:41:49.286Z,13.20
2022-11-28T11:44:16.447Z,11.63
2022-11-28T11:47:07.853Z,12.30
2022-11-28T11:49:41.960Z,12.10
2022-11-28T11:52:15.830Z,12.00
2022-11-28T11:55:14.663Z,12.18
2022-11-28T11:57:50.409Z,11.77
2022-11-28T12:00:22.780Z,13.32
2022-11-28T12:03:28.892Z,12.05
2022-11-28T12:06:15.252Z,13.27
2022-11-28T12:09:09.083Z,12.98
2022-11-28T12:14:36.653Z,13.45
2022-11-28T12:20:30.963Z,12.88
2022-11-28T12:23:17.749Z,13.10
2022-11-28T12:25:53.799Z,12.30
2022-11-28T12:28:45.917Z,13.02
2022-11-28T12:31:18.729Z,13.13
2022-11-28T12:34:06.030Z,13.13
2022-11-28T12:36:39.725Z,12.90
2022-11-28T12:39:36.453Z,12.40
2022-11-28T12:42:31.071Z,12.85
2022-11-28T12:45:19.741Z,13.18
2022-11-28T12:48:11.106Z,13.43
2022-11-28T12:50:47.463Z,13.45
2022-11-28T12:53:48.707Z,13.40
2022-11-28T12:56:27.776Z,13.50
2022-11-28T12:59:06.891Z,12.73
2022-11-28T13:01:53.235Z,14.27
2022-11-28T13:04:42.621Z,13.32
2022-11-28T13:07:16.266Z,13.63
2022-11-28T13:10:11.811Z,14.30
2022-11-28T13:12:52.881Z,13.40
2022-11-28T13:15:24.036Z,14.23
2022-11-28T13:18:24.860Z,13.52
2022-11-28T13:20:55.590Z,13.10
2022-11-28T13:23:35.373Z,13.77
2022-11-28T13:26:02.691Z,13.18
2022-11-28T13:28:52.532Z,13.57
2022-11-28T13:31:29.156Z,13.75
2022-11-28T13:33:57.471Z,13.48
2022-11-28T13:39:42.349Z,13.60
2022-11-28T13:43:03.035Z,14.73
2022-11-28T13:45:36.476Z,14.30
2022-11-28T13:54:20.479Z,15.15
2022-11-28T13:57:15.149Z,14.57
2022-11-28T13:59:58.988Z,14.85
2022-11-28T14:02:46.852Z,14.55
2022-11-28T14:05:27.535Z,14.55
2022-11-28T14:07:56.443Z,14.35
2022-11-28T14:10:46.644Z,14.77
2022-11-28T14:13:36.908Z,14.55
2022-11-28T14:16:20.677Z,16.13
2022-11-28T14:19:09.698Z,15.15
2022-11-28T14:22:04.751Z,15.35
2022-11-28T14:24:56.852Z,15.85
2022-11-28T14:27:33.192Z,14.65
2022-11-28T14:30:01.746Z,15.60
2022-11-28T14:32:42.313Z,14.25
2022-11-28T14:35:54.946Z,14.95
2022-11-28T14:38:35.430Z,15.60
2022-11-28T14:41:06.519Z,15.27
2022-11-28T14:43:46.301Z,15.77
2022-11-28T14:46:16.847Z,14.55
2022-11-28T14:49:00.055Z,15.23
2022-11-28T14:51:46.190Z,15.40
2022-11-28T14:54:30.043Z,14.65
2022-11-28T14:57:00.204Z,13.87
2022-11-28T14:59:34.494Z,14.70
2022-11-28T15:02:01.533Z,16.08
2022-11-28T15:04:49.800Z,14.48
2022-11-28T15:07:51.451Z,16.20
2022-11-28T15:10:24.122Z,15.27
2022-11-28T15:13:00.472Z,16.65
2022-11-28T15:15:29.001Z,16.90
2022-11-28T15:18:04.738Z,16.48
2022-11-28T15:20:47.638Z,15.40
2022-11-28T15:23:27.124Z,16.70
2022-11-28T15:25:56.103Z,15.75
2022-11-28T15:28:28.159Z,17.35
2022-11-28T15:31:00.699Z,16.58
2022-11-28T15:33:29.803Z,15.98
2022-11-28T15:36:17.326Z,17.20
2022-11-28T15:38:44.582Z,16.77
2022-11-28T15:41:12.181Z,16.63
2022-11-28T15:43:44.099Z,16.38
2022-11-28T15:46:25.230Z,16.52
2022-11-28T15:48:55.088Z,15.65
2022-11-28T15:51:34.048Z,17.88
2022-11-28T15:54:13.389Z,17.10
2022-11-28T15:56:59.849Z,16.98
2022-11-28T15:59:29.052Z,17.43
2022-11-28T16:02:02.348Z,18.48
2022-11-28T16:04:33.834Z,17.13
2022-11-28T16:07:02.324Z,18.25
2022-11-28T16:09:36.225Z,18.08
2022-11-28T16:12:13.213Z,18.67
2022-11-28T16:14:45.582Z,17.15
2022-11-28T16:17:24.146Z,17.63
2022-11-28T16:19:52.997Z,17.58
2022-11-28T16:22:27.360Z,20.13
2022-11-28T16:24:56.243Z,17.45
2022-11-28T16:27:39.502Z,20.15
2022-11-28T16:30:26.864Z,18.67
2022-11-28T16:32:58.604Z,20.77
2022-11-28T16:35:34.002Z,18.63
2022-11-28T16:38:26.024Z,18.75
2022-11-28T16:41:03.559Z,18.23
2022-11-28T16:43:34.376Z,20.20
2022-11-28T16:46:04.746Z,19.30
2022-11-28T16:48:56.061Z,19.27
2022-11-28T16:51:28.519Z,18.70
2022-11-28T16:54:00.390Z,18.25
2022-11-28T16:56:30.660Z,18.80
2022-11-28T16:59:19.135Z,18.27
2022-11-28T17:01:49.344Z,19.77
2022-11-28T17:04:27.327Z,16.50
2022-11-28T17:06:58.216Z,17.45
2022-11-28T17:09:26.397Z,17.33
2022-11-28T17:12:05.585Z,16.50
2022-11-28T17:14:37.749Z,16.35
2022-11-28T17:17:13.682Z,16.75
2022-11-28T17:19:42.561Z,13.20
2022-11-28T17:22:22.837Z,16.55
2022-11-28T17:24:56.026Z,16.95
2022-11-28T17:27:24.094Z,16.55
2022-11-28T17:29:52.487Z,16.95
2022-11-28T17:32:20.692Z,17.35
2022-11-28T17:34:51.284Z,18.20
2022-11-28T17:37:19.202Z,16.73
2022-11-28T17:40:06.580Z,16.77
2022-11-28T17:42:34.587Z,15.48
2022-11-28T17:45:03.160Z,17.73
2022-11-28T17:47:32.355Z,17.42
2022-11-28T17:50:06.118Z,17.02
2022-11-28T17:52:35.160Z,17.38
2022-11-28T17:55:07.173Z,16.95
2022-11-28T17:57:36.225Z,16.38
2022-11-28T18:00:07.281Z,18.88
2022-11-28T18:02:42.314Z,18.05
2022-11-28T18:05:11.457Z,18.17
2022-11-28T18:07:41.305Z,17.30
2022-11-28T18:10:12.908Z,17.05
2022-11-28T18:12:40.705Z,16.88
2022-11-28T18:15:10.907Z,18.70
2022-11-28T18:17:39.052Z,18.27
2022-11-28T18:20:07.961Z,18.20
2022-11-28T18:22:36.291Z,17.98
2022-11-28T18:25:08.384Z,17.63
2022-11-28T18:27:36.164Z,19.08
2022-11-28T18:30:05.385Z,17.38
2022-11-28T18:32:33.533Z,18.17
2022-11-28T18:35:01.783Z,18.70
2022-11-28T18:37:31.775Z,17.20
2022-11-28T18:40:05.063Z,19.42
2022-11-28T18:42:36.669Z,19.08
2022-11-28T18:45:05.662Z,18.30
2022-11-28T18:47:36.398Z,20.63
2022-11-28T18:50:04.919Z,19.63
2022-11-28T18:52:35.243Z,18.67
2022-11-28T18:55:06.077Z,18.38
2022-11-28T18:57:35.329Z,19.02
2022-11-28T19:00:06.974Z,19.30
2022-11-28T19:02:37.853Z,20.08
2022-11-28T19:05:07.173Z,19.35
2022-11-28T19:07:36.312Z,19.08
2022-11-28T19:10:06.554Z,19.70
2022-11-28T19:12:35.053Z,19.73
2022-11-28T19:15:03.568Z,19.58
2022-11-28T19:17:31.603Z,21.55
2022-11-28T19:20:03.890Z,20.27
2022-11-28T19:22:36.796Z,21.30
2022-11-28T19:25:08.716Z,19.45
2022-11-28T19:27:39.238Z,20.25
2022-11-28T19:30:09.188Z,20.50
2022-11-28T19:32:37.032Z,19.50
2022-11-28T19:35:05.184Z,19.63
2022-11-28T19:37:33.425Z,21.83
2022-11-28T19:40:03.493Z,19.55
2022-11-28T19:42:32.258Z,22.38
2022-11-28T19:45:04.644Z,22.45
2022-11-28T19:47:40.941Z,20.55
2022-11-28T19:50:12.939Z,20.45
2022-11-28T19:52:41.229Z,21.73
2022-11-28T19:55:11.471Z,22.38
2022-11-28T19:57:42.896Z,20.13
2022-11-28T20:00:12.056Z,21.48
2022-11-28T20:02:42.977Z,22.65
2022-11-28T20:05:11.717Z,22.05
2022-11-28T20:07:40.038Z,24.02
2022-11-28T20:10:10.092Z,22.35
2022-11-28T20:12:38.762Z,28.15
2022-11-28T20:15:07.764Z,22.85
2022-11-28T20:17:36.007Z,22.15
2022-11-28T20:20:05.723Z,21.98
2022-11-28T20:22:36.435Z,22.17
2022-11-28T20:25:06.340Z,22.50
2022-11-28T20:27:36.027Z,21.45
2022-11-28T20:30:07.070Z,23.10
2022-11-28T20:32:37.446Z,23.00
2022-11-28T20:35:09.471Z,25.42
2022-11-28T20:37:39.668Z,27.38
2022-11-28T20:40:08.844Z,24.33
2022-11-28T20:42:39.865Z,23.27
2022-11-28T20:45:08.875Z,22.65
2022-11-28T20:47:36.597Z,23.38
2022-11-28T20:50:09.764Z,24.00
2022-11-28T20:52:37.613Z,25.98
2022-11-28T20:55:06.706Z,24.25
2022-11-28T20:57:37.272Z,23.58
2022-11-28T21:00:06.390Z,23.85
2022-11-28T21:02:34.395Z,23.33
2022-11-28T21:05:02.467Z,23.02
2022-11-28T21:07:31.398Z,23.80
2022-11-28T21:10:01.300Z,23.70
2022-11-28T21:12:28.911Z,23.35
2022-11-28T21:14:56.717Z,22.83
2022-11-28T21:17:24.383Z,24.08
2022-11-28T21:19:52.102Z,23.00
2022-11-28T21:22:19.739Z,23.98
2022-11-28T21:24:52.078Z,22.20
2022-11-28T21:27:19.626Z,22.52
2022-11-28T21:29:52.451Z,22.15
2022-11-28T21:32:20.278Z,22.85
2022-11-28T21:34:47.781Z,23.67
2022-11-28T21:37:14.910Z,22.83
2022-11-28T21:39:43.031Z,21.58
2022-11-28T21:42:10.507Z,21.63
2022-11-28T21:44:42.505Z,23.08
2022-11-28T21:47:10.472Z,23.42
2022-11-28T21:49:38.810Z,24.42
2022-11-28T21:52:07.923Z,22.50
2022-11-28T21:54:35.909Z,22.67
2022-11-28T21:57:03.234Z,24.38
2022-11-28T21:59:32.084Z,23.30
2022-11-28T22:01:59.259Z,23.77
2022-11-28T22:04:27.079Z,23.65
2022-11-28T22:06:54.906Z,23.95
2022-11-28T22:09:24.712Z,23.85
2022-11-28T22:11:51.928Z,23.50
2022-11-28T22:14:19.961Z,23.73
2022-11-28T22:16:47.970Z,21.52
2022-11-28T22:19:15.572Z,22.20
2022-11-28T22:21:54.621Z,22.48
2022-11-28T22:24:24.912Z,23.15
2022-11-28T22:26:54.084Z,21.15
2022-11-28T22:29:25.527Z,22.58
2022-11-28T22:31:54.817Z,21.65
2022-11-28T22:34:23.547Z,21.95
2022-11-28T22:36:50.591Z,21.88
2022-11-28T22:39:20.491Z,21.17
2022-11-28T22:41:51.005Z,23.70
2022-11-28T22:44:20.800Z,23.05
2022-11-28T22:46:51.073Z,19.83
2022-11-28T22:49:19.956Z,21.08
2022-11-28T22:51:47.867Z,22.80
2022-11-28T22:54:15.551Z,21.85
2022-11-28T22:56:42.670Z,21.92
2022-11-28T22:59:16.838Z,21.60
2022-11-28T23:01:46.354Z,20.70
2022-11-28T23:04:14.179Z,21.73
2022-11-28T23:06:41.920Z,20.90
2022-11-28T23:09:12.248Z,21.95
2022-11-28T23:11:40.342Z,21.30
2022-11-28T23:14:10.517Z,21.55
2022-11-28T23:16:39.892Z,20.63
2022-11-28T23:19:17.473Z,21.55
2022-11-28T23:21:46.835Z,20.98
2022-11-28T23:24:17.357Z,20.48
2022-11-28T23:26:47.166Z,21.15
2022-11-28T23:29:15.685Z,20.80
2022-11-28T23:31:47.119Z,19.55
2022-11-28T23:34:15.185Z,20.33
2022-11-28T23:36:45.800Z,19.52
2022-11-28T23:39:19.874Z,20.40
2022-11-28T23:41:47.432Z,19.38
2022-11-28T23:44:16.250Z,19.00
2022-11-28T23:46:43.977Z,19.30
2022-11-28T23:49:14.451Z,19.55
2022-11-28T23:51:41.581Z,18.42
2022-11-28T23:54:10.347Z,18.23
2022-11-28T23:56:39.955Z,18.63
2022-11-28T23:59:09.805Z,18.92
